createdAt,value
2018-07-17T00:00:09.264Z,99.90
2018-07-17T00:02:37.602Z,99.90
2018-07-17T00:05:07.173Z,99.90
2018-07-17T00:07:35.476Z,99.90
2018-07-17T00:10:03.815Z,99.90
2018-07-17T00:12:32.151Z,99.90
2018-07-17T00:17:28.568Z,99.90
2018-07-17T00:19:56.879Z,99.90
2018-07-17T00:22:25.169Z,99.90
2018-07-17T00:24:53.495Z,99.90
2018-07-17T00:27:21.816Z,99.90
2018-07-17T00:29:50.135Z,99.90
2018-07-17T00:32:18.512Z,99.90
2018-07-17T00:34:46.831Z,99.90
2018-07-17T00:37:15.130Z,99.90
2018-07-17T00:39:43.569Z,99.90
2018-07-17T00:42:11.955Z,99.90
2018-07-17T00:44:40.290Z,99.90
2018-07-17T00:47:08.623Z,99.90
2018-07-17T00:49:37.150Z,99.90
2018-07-17T00:52:05.468Z,99.90
2018-07-17T00:54:33.791Z,99.90
2018-07-17T00:57:02.104Z,99.90
2018-07-17T00:59:30.415Z,99.90
2018-07-17T01:02:04.214Z,99.90
2018-07-17T01:04:38.036Z,99.90
2018-07-17T01:07:11.774Z,99.90
2018-07-17T01:09:45.451Z,99.90
2018-07-17T01:12:12.992Z,99.90
2018-07-17T01:15:51.971Z,99.90
2018-07-17T01:18:20.334Z,99.90
2018-07-17T01:20:48.670Z,99.90
2018-07-17T01:23:16.975Z,99.90
2018-07-17T01:25:45.291Z,99.90
2018-07-17T01:28:13.580Z,99.90
2018-07-17T01:30:41.895Z,99.90
2018-07-17T01:33:10.170Z,99.90
2018-07-17T01:35:38.470Z,99.90
2018-07-17T01:38:06.765Z,99.90
2018-07-17T01:40:35.088Z,99.90
2018-07-17T01:43:03.462Z,99.90
2018-07-17T01:45:31.824Z,99.90
2018-07-17T01:48:00.128Z,99.90
2018-07-17T01:50:28.441Z,99.90
2018-07-17T01:52:56.738Z,99.90
2018-07-17T01:55:25.053Z,99.90
2018-07-17T02:00:21.382Z,99.90
2018-07-17T02:02:49.803Z,99.90
2018-07-17T02:05:18.124Z,99.90
2018-07-17T02:07:46.571Z,99.90
2018-07-17T02:10:14.920Z,99.90
2018-07-17T02:12:43.202Z,99.90
2018-07-17T02:15:12.207Z,99.90
2018-07-17T02:17:40.519Z,99.90
2018-07-17T02:20:08.822Z,99.90
2018-07-17T02:22:37.113Z,99.90
2018-07-17T02:25:05.573Z,99.90
2018-07-17T02:27:33.879Z,99.90
2018-07-17T02:30:02.269Z,99.90
2018-07-17T02:32:30.586Z,99.90
2018-07-17T02:34:58.939Z,99.90
2018-07-17T02:37:27.256Z,99.90
2018-07-17T02:39:55.556Z,99.90
2018-07-17T02:42:23.955Z,99.90
2018-07-17T02:44:52.191Z,99.90
2018-07-17T02:47:20.519Z,99.90
2018-07-17T02:49:48.815Z,99.90
2018-07-17T02:52:17.184Z,99.90
2018-07-17T02:54:45.481Z,99.90
2018-07-17T02:57:13.779Z,99.90
2018-07-17T02:59:42.063Z,99.90
2018-07-17T03:02:10.381Z,99.90
2018-07-17T03:04:38.687Z,99.90
2018-07-17T03:07:07.025Z,99.90
2018-07-17T03:09:35.316Z,99.90
2018-07-17T03:12:03.629Z,99.90
2018-07-17T03:14:31.922Z,99.90
2018-07-17T03:19:28.283Z,99.90
2018-07-17T03:21:56.586Z,99.90
2018-07-17T03:24:24.949Z,99.90
2018-07-17T03:26:53.202Z,99.90
2018-07-17T03:29:21.497Z,99.90
2018-07-17T03:31:49.837Z,99.90
2018-07-17T03:34:18.124Z,99.90
2018-07-17T03:36:46.440Z,99.90
2018-07-17T03:39:14.735Z,99.90
2018-07-17T03:41:43.054Z,99.90
2018-07-17T03:46:39.467Z,99.90
2018-07-17T03:49:07.759Z,99.90
2018-07-17T03:51:36.091Z,99.90
2018-07-17T03:54:04.394Z,99.90
2018-07-17T03:56:32.736Z,99.90
2018-07-17T03:59:01.013Z,99.90
2018-07-17T04:01:29.331Z,99.90
2018-07-17T04:03:57.676Z,99.90
2018-07-17T04:06:25.992Z,99.90
2018-07-17T04:08:54.353Z,99.90
2018-07-17T04:11:22.689Z,99.90
2018-07-17T04:13:50.972Z,99.90
2018-07-17T04:16:19.324Z,99.90
2018-07-17T04:18:47.616Z,99.90
2018-07-17T04:21:15.911Z,99.90
2018-07-17T04:23:44.223Z,99.90
2018-07-17T04:26:12.520Z,99.90
2018-07-17T04:28:40.804Z,99.90
2018-07-17T04:31:09.130Z,99.90
2018-07-17T04:33:37.494Z,99.90
2018-07-17T04:36:06.059Z,99.90
2018-07-17T04:38:34.348Z,99.90
2018-07-17T04:41:02.662Z,99.90
2018-07-17T04:43:30.979Z,99.90
2018-07-17T04:45:59.359Z,99.90
2018-07-17T04:48:27.668Z,99.90
2018-07-17T04:50:55.957Z,99.90
2018-07-17T04:53:24.303Z,99.90
2018-07-17T04:55:52.608Z,99.90
2018-07-17T04:58:20.953Z,99.90
2018-07-17T05:00:49.260Z,99.90
2018-07-17T05:03:17.592Z,99.90
2018-07-17T05:05:45.879Z,99.90
2018-07-17T05:08:14.192Z,99.90
2018-07-17T05:10:42.511Z,99.90
2018-07-17T05:13:10.832Z,99.90
2018-07-17T05:15:39.123Z,99.90
2018-07-17T05:18:07.460Z,99.90
2018-07-17T05:20:35.743Z,99.90
2018-07-17T05:23:04.116Z,99.90
2018-07-17T05:28:00.684Z,99.90
2018-07-17T05:30:28.993Z,99.90
2018-07-17T05:32:57.268Z,99.90
2018-07-17T05:35:25.675Z,99.90
2018-07-17T05:37:53.991Z,99.90
2018-07-17T05:40:22.513Z,99.90
2018-07-17T05:42:50.899Z,99.90
2018-07-17T05:45:19.262Z,99.90
2018-07-17T05:47:47.644Z,99.90
2018-07-17T05:50:16.055Z,99.90
2018-07-17T05:52:44.383Z,99.90
2018-07-17T05:55:12.777Z,99.90
2018-07-17T05:57:41.133Z,99.90
2018-07-17T06:00:09.931Z,99.90
2018-07-17T06:02:38.283Z,99.90
2018-07-17T06:05:06.623Z,99.90
2018-07-17T06:07:35.304Z,99.90
2018-07-17T06:10:03.651Z,99.90
2018-07-17T06:12:32.184Z,99.90
2018-07-17T06:17:28.848Z,99.90
2018-07-17T06:19:57.260Z,99.90
2018-07-17T06:22:25.602Z,99.90
2018-07-17T06:24:53.939Z,99.90
2018-07-17T06:27:22.288Z,99.90
2018-07-17T06:29:50.588Z,99.90
2018-07-17T06:32:19.049Z,99.90
2018-07-17T06:34:47.411Z,99.90
2018-07-17T06:37:15.787Z,99.90
2018-07-17T06:39:44.104Z,99.90
2018-07-17T06:42:12.479Z,99.90
2018-07-17T06:44:40.958Z,99.90
2018-07-17T06:47:11.380Z,99.90
2018-07-17T06:49:39.772Z,99.90
2018-07-17T06:52:08.124Z,99.90
2018-07-17T06:54:36.434Z,99.90
2018-07-17T06:57:04.738Z,99.90
2018-07-17T06:59:33.051Z,99.90
2018-07-17T07:02:01.350Z,99.90
2018-07-17T07:04:29.688Z,99.90
2018-07-17T07:06:58.047Z,99.90
2018-07-17T07:09:26.466Z,99.90
2018-07-17T07:11:54.768Z,99.90
2018-07-17T07:14:23.083Z,99.90
2018-07-17T07:16:51.553Z,99.90
2018-07-17T07:19:19.875Z,99.90
2018-07-17T07:21:48.212Z,99.90
2018-07-17T07:24:16.524Z,99.90
2018-07-17T07:26:44.829Z,99.90
2018-07-17T07:29:13.171Z,99.90
2018-07-17T07:31:41.577Z,99.90
2018-07-17T07:34:09.884Z,99.90
2018-07-17T07:36:38.287Z,99.90
2018-07-17T07:39:08.791Z,99.90
2018-07-17T07:41:37.262Z,99.90
2018-07-17T07:44:06.016Z,99.90
2018-07-17T07:46:34.436Z,99.90
2018-07-17T07:49:02.938Z,99.90
2018-07-17T07:53:59.867Z,99.90
2018-07-17T07:56:28.179Z,99.90
2018-07-17T07:58:56.512Z,99.90
2018-07-17T08:01:24.830Z,99.90
2018-07-17T08:03:53.209Z,99.90
2018-07-17T08:06:21.511Z,99.90
2018-07-17T08:08:49.834Z,99.90
2018-07-17T08:11:18.138Z,99.90
2018-07-17T08:13:46.472Z,99.90
2018-07-17T08:16:14.934Z,99.90
2018-07-17T08:18:43.246Z,99.90
2018-07-17T08:21:11.580Z,99.90
2018-07-17T08:23:39.933Z,99.90
2018-07-17T08:28:36.290Z,99.90
2018-07-17T08:33:32.729Z,99.90
2018-07-17T08:36:01.035Z,99.90
2018-07-17T08:38:29.372Z,99.90
2018-07-17T08:40:57.664Z,99.90
2018-07-17T08:43:26.065Z,99.90
2018-07-17T08:45:54.337Z,99.90
2018-07-17T08:48:22.683Z,99.90
2018-07-17T08:50:51.020Z,99.90
2018-07-17T08:53:19.359Z,99.90
2018-07-17T08:55:47.864Z,99.90
2018-07-17T08:58:16.197Z,99.90
2018-07-17T09:00:44.518Z,99.90
2018-07-17T09:03:12.828Z,99.90
2018-07-17T09:05:41.114Z,99.90
2018-07-17T09:08:09.447Z,99.90
2018-07-17T09:10:37.955Z,99.90
2018-07-17T09:13:06.386Z,99.90
2018-07-17T09:15:34.813Z,99.90
2018-07-17T09:18:03.140Z,99.90
2018-07-17T09:20:31.481Z,99.90
2018-07-17T09:22:59.783Z,99.90
2018-07-17T09:25:28.331Z,99.90
2018-07-17T09:27:56.993Z,99.90
2018-07-17T09:30:28.591Z,99.90
2018-07-17T09:32:56.904Z,99.90
2018-07-17T09:35:25.229Z,99.90
2018-07-17T09:37:53.533Z,99.90
2018-07-17T09:40:21.858Z,99.90
2018-07-17T09:42:50.184Z,99.90
2018-07-17T09:45:18.497Z,99.90
2018-07-17T09:47:46.808Z,99.90
2018-07-17T09:50:15.160Z,99.90
2018-07-17T09:52:43.468Z,99.80
2018-07-17T09:55:11.951Z,99.50
2018-07-17T09:57:40.326Z,99.10
2018-07-17T10:00:10.739Z,99.00
2018-07-17T10:02:39.057Z,98.40
2018-07-17T10:05:07.403Z,97.70
2018-07-17T10:07:42.176Z,97.90
2018-07-17T10:10:10.478Z,98.00
2018-07-17T10:12:38.793Z,97.90
2018-07-17T10:15:07.286Z,97.90
2018-07-17T10:17:35.661Z,97.20
2018-07-17T10:20:04.335Z,96.20
2018-07-17T10:22:32.636Z,95.80
2018-07-17T10:25:01.013Z,92.30
2018-07-17T10:27:29.315Z,90.80
2018-07-17T10:32:25.675Z,90.90
2018-07-17T10:34:54.015Z,90.90
2018-07-17T10:39:50.480Z,91.40
2018-07-17T10:42:18.898Z,91.60
2018-07-17T10:44:47.249Z,91.60
2018-07-17T10:47:15.583Z,92.00
2018-07-17T10:49:43.946Z,91.30
2018-07-17T10:52:12.249Z,90.90
2018-07-17T10:54:40.708Z,90.60
2018-07-17T10:57:09.015Z,87.20
2018-07-17T10:59:37.322Z,88.60
2018-07-17T11:02:05.639Z,87.50
2018-07-17T11:04:34.005Z,87.10
2018-07-17T11:07:02.372Z,86.50
2018-07-17T11:09:30.714Z,86.40
2018-07-17T11:14:27.097Z,83.40
2018-07-17T11:16:55.572Z,83.80
2018-07-17T11:19:23.880Z,82.80
2018-07-17T11:21:52.190Z,80.10
2018-07-17T11:24:20.538Z,80.30
2018-07-17T11:26:48.838Z,80.60
2018-07-17T11:29:17.756Z,80.10
2018-07-17T11:31:46.073Z,80.50
2018-07-17T11:34:14.409Z,79.90
2018-07-17T11:36:42.775Z,79.00
2018-07-17T11:39:11.097Z,79.10
2018-07-17T11:41:39.522Z,79.30
2018-07-17T11:44:07.851Z,76.70
2018-07-17T11:46:36.192Z,76.20
2018-07-17T11:49:04.538Z,75.80
2018-07-17T11:51:32.896Z,75.70
2018-07-17T11:54:01.244Z,75.00
2018-07-17T11:56:29.616Z,74.70
2018-07-17T11:58:57.979Z,70.30
2018-07-17T12:01:26.290Z,68.30
2018-07-17T12:03:54.613Z,68.20
2018-07-17T12:06:23.038Z,68.70
2018-07-17T12:08:51.507Z,66.60
2018-07-17T12:11:19.827Z,68.90
2018-07-17T12:13:48.155Z,66.50
2018-07-17T12:16:16.494Z,66.10
2018-07-17T12:18:44.817Z,66.50
2018-07-17T12:21:13.162Z,64.90
2018-07-17T12:23:41.714Z,65.50
2018-07-17T12:26:10.224Z,65.10
2018-07-17T12:28:38.616Z,65.30
2018-07-17T12:31:06.967Z,64.00
2018-07-17T12:33:35.288Z,64.40
2018-07-17T12:36:03.734Z,64.70
2018-07-17T12:38:32.052Z,64.20
2018-07-17T12:41:00.490Z,62.90
2018-07-17T12:43:28.896Z,62.20
2018-07-17T12:45:57.294Z,63.10
2018-07-17T12:48:25.850Z,63.30
2018-07-17T12:50:54.183Z,63.80
2018-07-17T12:53:22.570Z,63.40
2018-07-17T12:55:51.017Z,63.30
2018-07-17T12:58:19.654Z,60.60
2018-07-17T13:00:48.019Z,60.00
2018-07-17T13:03:16.331Z,60.70
2018-07-17T13:05:44.657Z,59.10
2018-07-17T13:08:12.971Z,59.20
2018-07-17T13:10:41.328Z,60.30
2018-07-17T13:13:09.644Z,59.50
2018-07-17T13:15:38.005Z,58.10
2018-07-17T13:18:06.318Z,57.80
2018-07-17T13:20:34.631Z,58.20
2018-07-17T13:23:02.961Z,57.50
2018-07-17T13:25:31.287Z,57.10
2018-07-17T13:27:59.609Z,55.60
2018-07-17T13:30:27.944Z,54.90
2018-07-17T13:32:56.275Z,55.80
2018-07-17T13:35:24.619Z,55.10
2018-07-17T13:37:53.220Z,57.20
2018-07-17T13:40:21.812Z,58.70
2018-07-17T13:42:50.151Z,58.60
2018-07-17T13:45:18.530Z,58.40
2018-07-17T13:47:46.845Z,57.90
2018-07-17T13:50:15.191Z,57.70
2018-07-17T13:52:43.507Z,57.40
2018-07-17T13:55:11.947Z,56.00
2018-07-17T13:57:40.267Z,55.40
2018-07-17T14:00:08.744Z,56.60
2018-07-17T14:02:37.067Z,55.70
2018-07-17T14:05:05.551Z,55.60
2018-07-17T14:07:33.888Z,56.20
2018-07-17T14:10:02.219Z,56.10
2018-07-17T14:12:30.550Z,56.70
2018-07-17T14:14:58.847Z,58.00
2018-07-17T14:17:27.275Z,59.50
2018-07-17T14:19:55.555Z,60.30
2018-07-17T14:22:24.060Z,61.20
2018-07-17T14:24:52.374Z,62.80
2018-07-17T14:27:20.722Z,64.60
2018-07-17T14:29:49.037Z,66.30
2018-07-17T14:32:17.344Z,67.30
2018-07-17T14:34:45.648Z,67.80
2018-07-17T14:37:13.994Z,68.90
2018-07-17T14:39:42.323Z,69.80
2018-07-17T14:42:10.645Z,68.20
2018-07-17T14:44:38.936Z,67.50
2018-07-17T14:47:07.270Z,67.90
2018-07-17T14:49:35.575Z,68.80
2018-07-17T14:52:03.923Z,69.70
2018-07-17T14:54:32.252Z,71.10
2018-07-17T14:57:00.568Z,71.80
2018-07-17T14:59:28.872Z,72.50
2018-07-17T15:04:25.203Z,75.40
2018-07-17T15:06:53.523Z,75.20
2018-07-17T15:09:21.835Z,76.50
2018-07-17T15:11:50.178Z,78.10
2018-07-17T15:14:18.496Z,78.80
2018-07-17T15:16:46.841Z,80.00
2018-07-17T15:19:15.156Z,81.00
2018-07-17T15:21:43.495Z,81.80
2018-07-17T15:24:11.815Z,81.60
2018-07-17T15:26:40.286Z,80.80
2018-07-17T15:29:08.605Z,79.60
2018-07-17T15:31:36.967Z,78.40
2018-07-17T15:34:05.315Z,77.20
2018-07-17T15:36:33.638Z,75.50
2018-07-17T15:39:02.127Z,75.10
2018-07-17T15:41:30.426Z,74.60
2018-07-17T15:43:58.767Z,75.40
2018-07-17T15:46:27.099Z,76.40
2018-07-17T15:48:55.444Z,76.90
2018-07-17T15:51:23.792Z,76.50
2018-07-17T15:56:20.313Z,75.70
2018-07-17T15:58:48.647Z,73.90
2018-07-17T16:01:17.000Z,73.50
2018-07-17T16:03:45.321Z,73.70
2018-07-17T16:06:13.761Z,74.20
2018-07-17T16:08:42.064Z,72.20
2018-07-17T16:11:10.372Z,71.70
2018-07-17T16:13:38.787Z,70.70
2018-07-17T16:16:06.999Z,70.90
2018-07-17T16:18:35.374Z,71.80
2018-07-17T16:21:03.777Z,70.30
2018-07-17T16:23:32.062Z,69.50
2018-07-17T16:26:00.369Z,69.40
2018-07-17T16:28:28.693Z,67.40
2018-07-17T16:30:56.996Z,67.50
2018-07-17T16:33:25.335Z,68.50
2018-07-17T16:35:53.649Z,69.10
2018-07-17T16:38:21.977Z,70.00
2018-07-17T16:40:50.539Z,70.10
2018-07-17T16:43:19.386Z,70.90
2018-07-17T16:45:48.104Z,70.40
2018-07-17T16:48:16.424Z,70.10
2018-07-17T16:50:44.744Z,71.60
2018-07-17T16:53:13.076Z,72.40
2018-07-17T16:55:41.386Z,72.50
2018-07-17T16:58:09.700Z,72.00
2018-07-17T17:03:06.102Z,73.20
2018-07-17T17:05:34.453Z,73.50
2018-07-17T17:08:03.021Z,73.90
2018-07-17T17:10:31.478Z,75.00
2018-07-17T17:12:59.799Z,75.60
2018-07-17T17:15:28.110Z,75.60
2018-07-17T17:17:56.497Z,76.20
2018-07-17T17:20:24.821Z,76.50
2018-07-17T17:22:53.150Z,77.10
2018-07-17T17:25:21.477Z,77.60
2018-07-17T17:27:49.807Z,78.10
2018-07-17T17:30:18.128Z,78.10
2018-07-17T17:32:46.921Z,78.40
2018-07-17T17:35:15.252Z,79.00
2018-07-17T17:37:43.650Z,79.20
2018-07-17T17:40:11.977Z,79.10
2018-07-17T17:42:40.349Z,79.80
2018-07-17T17:45:08.690Z,80.00
2018-07-17T17:47:37.051Z,80.30
2018-07-17T17:50:05.596Z,80.30
2018-07-17T17:52:33.982Z,80.80
2018-07-17T17:55:02.277Z,80.30
2018-07-17T17:57:30.775Z,80.30
2018-07-17T17:59:59.116Z,81.20
2018-07-17T18:02:27.550Z,82.00
2018-07-17T18:04:55.847Z,81.70
2018-07-17T18:07:24.423Z,82.20
2018-07-17T18:09:52.775Z,82.60
2018-07-17T18:12:21.108Z,83.00
2018-07-17T18:14:49.418Z,83.80
2018-07-17T18:17:17.887Z,83.60
2018-07-17T18:19:46.351Z,83.80
2018-07-17T18:22:14.699Z,84.00
2018-07-17T18:24:43.238Z,83.80
2018-07-17T18:27:11.576Z,84.10
2018-07-17T18:29:39.851Z,84.50
2018-07-17T18:32:08.465Z,85.10
2018-07-17T18:34:36.925Z,85.60
2018-07-17T18:37:05.271Z,85.70
2018-07-17T18:39:33.667Z,86.20
2018-07-17T18:42:02.013Z,86.80
2018-07-17T18:44:30.315Z,87.10
2018-07-17T18:46:58.631Z,87.30
2018-07-17T18:49:26.973Z,88.00
2018-07-17T18:51:55.300Z,88.30
2018-07-17T18:54:23.640Z,88.60
2018-07-17T18:56:51.983Z,88.90
2018-07-17T18:59:20.344Z,89.40
2018-07-17T19:01:48.736Z,89.50
2018-07-17T19:04:17.083Z,89.80
2018-07-17T19:06:45.370Z,90.10
2018-07-17T19:09:13.727Z,90.40
2018-07-17T19:11:42.024Z,90.70
2018-07-17T19:14:10.335Z,91.00
2018-07-17T19:16:38.830Z,91.60
2018-07-17T19:19:07.483Z,92.10
2018-07-17T19:21:35.807Z,92.40
2018-07-17T19:24:04.141Z,92.70
2018-07-17T19:26:32.455Z,93.00
2018-07-17T19:29:00.826Z,93.60
2018-07-17T19:31:29.280Z,94.30
2018-07-17T19:33:57.600Z,94.90
2018-07-17T19:36:25.929Z,95.50
2018-07-17T19:38:54.268Z,96.00
2018-07-17T19:43:50.888Z,97.40
2018-07-17T19:46:19.213Z,97.60
2018-07-17T19:48:47.619Z,98.00
2018-07-17T19:51:15.932Z,98.30
2018-07-17T19:53:44.242Z,98.50
2018-07-17T19:56:12.555Z,98.80
2018-07-17T19:58:40.893Z,99.10
2018-07-17T20:03:37.221Z,99.70
2018-07-17T20:06:05.524Z,99.70
2018-07-17T20:11:01.940Z,99.90
2018-07-17T20:13:30.288Z,99.90
2018-07-17T20:15:58.628Z,99.90
2018-07-17T20:18:26.971Z,99.90
2018-07-17T20:20:55.273Z,99.90
2018-07-17T20:25:51.622Z,99.90
2018-07-17T20:28:19.945Z,99.90
2018-07-17T20:30:48.296Z,99.90
2018-07-17T20:33:16.958Z,99.90
2018-07-17T20:35:45.346Z,99.90
2018-07-17T20:38:13.687Z,99.90
2018-07-17T20:40:42.019Z,99.90
2018-07-17T20:45:38.552Z,99.90
2018-07-17T20:50:34.974Z,99.90
2018-07-17T20:53:03.464Z,99.90
2018-07-17T20:55:31.771Z,99.90
2018-07-17T20:58:00.076Z,99.90
2018-07-17T21:00:28.496Z,99.90
2018-07-17T21:02:56.812Z,99.90
2018-07-17T21:05:25.302Z,99.90
2018-07-17T21:07:53.595Z,99.90
2018-07-17T21:10:22.102Z,99.90
2018-07-17T21:12:50.407Z,99.90
2018-07-17T21:15:18.783Z,99.90
2018-07-17T21:17:47.113Z,99.90
2018-07-17T21:20:15.456Z,99.90
2018-07-17T21:22:43.806Z,99.90
2018-07-17T21:25:12.208Z,99.90
2018-07-17T21:27:40.516Z,99.90
2018-07-17T21:30:08.823Z,99.90
2018-07-17T21:32:37.126Z,99.90
2018-07-17T21:35:05.472Z,99.90
2018-07-17T21:37:33.782Z,99.90
2018-07-17T21:40:02.093Z,99.90
2018-07-17T21:42:30.382Z,99.90
2018-07-17T21:44:58.705Z,99.90
2018-07-17T21:47:27.016Z,99.90
2018-07-17T21:49:55.343Z,99.90
2018-07-17T21:52:23.651Z,99.90
2018-07-17T21:57:20.000Z,99.90
2018-07-17T21:59:48.302Z,99.90
2018-07-17T22:02:16.644Z,99.90
2018-07-17T22:04:44.963Z,99.90
2018-07-17T22:07:13.267Z,99.90
2018-07-17T22:09:41.590Z,99.90
2018-07-17T22:12:09.956Z,99.90
2018-07-17T22:14:38.288Z,99.90
2018-07-17T22:17:06.612Z,99.90
2018-07-17T22:19:34.941Z,99.90
2018-07-17T22:22:03.229Z,99.90
2018-07-17T22:24:31.663Z,99.90
2018-07-17T22:26:59.983Z,99.90
2018-07-17T22:29:28.452Z,99.90
2018-07-17T22:31:56.763Z,99.90
2018-07-17T22:34:25.634Z,99.90
2018-07-17T22:36:53.954Z,99.90
2018-07-17T22:39:22.292Z,99.90
2018-07-17T22:41:50.611Z,99.90
2018-07-17T22:44:18.944Z,99.90
2018-07-17T22:46:47.227Z,99.90
2018-07-17T22:49:20.608Z,99.90
2018-07-17T22:51:49.290Z,99.90
2018-07-17T22:54:17.591Z,99.90
2018-07-17T22:56:46.132Z,99.90
2018-07-17T22:59:14.447Z,99.90
2018-07-17T23:01:42.748Z,99.90
2018-07-17T23:06:39.264Z,99.90
2018-07-17T23:09:09.670Z,99.90
2018-07-17T23:11:39.175Z,99.90
2018-07-17T23:14:07.694Z,99.90
2018-07-17T23:16:36.132Z,99.90
2018-07-17T23:19:04.524Z,99.90
2018-07-17T23:21:32.847Z,99.90
2018-07-17T23:24:01.172Z,99.90
2018-07-17T23:26:29.485Z,99.90
2018-07-17T23:28:57.796Z,99.90
2018-07-17T23:31:26.122Z,99.90
2018-07-17T23:33:54.435Z,99.90
2018-07-17T23:36:22.784Z,99.90
2018-07-17T23:38:51.076Z,99.90
2018-07-17T23:41:19.393Z,99.90
2018-07-17T23:43:48.512Z,99.90
2018-07-17T23:46:16.890Z,99.90
2018-07-17T23:48:45.163Z,99.90
2018-07-17T23:51:13.649Z,99.90
2018-07-17T23:53:42.033Z,99.90
2018-07-17T23:56:10.438Z,99.90
2018-07-17T23:58:38.964Z,99.90
